sensor_id;sensor_type;location;lat;lon;timestamp;temperature;humidity
48604;DHT22;32708;51.212;6.788;2023-03-21T00:01:53;11.70;1.00
48604;DHT22;32708;51.212;6.788;2023-03-21T00:04:21;11.70;1.00
48604;DHT22;32708;51.212;6.788;2023-03-21T00:06:48;11.60;1.00
48604;DHT22;32708;51.212;6.788;2023-03-21T00:09:15;11.60;1.00
48604;DHT22;32708;51.212;6.788;2023-03-21T00:11:41;11.70;1.00
48604;DHT22;32708;51.212;6.788;2023-03-21T00:14:07;11.70;1.00
48604;DHT22;32708;51.212;6.788;2023-03-21T00:16:34;11.60;1.00
48604;DHT22;32708;51.212;6.788;2023-03-21T00:19:01;11.80;1.00
48604;DHT22;32708;51.212;6.788;2023-03-21T00:21:31;11.80;1.00
48604;DHT22;32708;51.212;6.788;2023-03-21T00:23:59;11.80;1.00
48604;DHT22;32708;51.212;6.788;2023-03-21T00:26:26;11.70;1.00
48604;DHT22;32708;51.212;6.788;2023-03-21T00:28:52;11.80;1.00
48604;DHT22;32708;51.212;6.788;2023-03-21T00:31:20;11.80;1.00
48604;DHT22;32708;51.212;6.788;2023-03-21T00:33:49;11.70;1.00
48604;DHT22;32708;51.212;6.788;2023-03-21T00:36:15;11.70;1.00
48604;DHT22;32708;51.212;6.788;2023-03-21T00:38:42;12.10;1.00
48604;DHT22;32708;51.212;6.788;2023-03-21T00:41:10;12.10;1.00
48604;DHT22;32708;51.212;6.788;2023-03-21T00:43:37;11.80;1.00
48604;DHT22;32708;51.212;6.788;2023-03-21T00:46:03;11.70;1.00
48604;DHT22;32708;51.212;6.788;2023-03-21T00:48:30;11.70;1.00
48604;DHT22;32708;51.212;6.788;2023-03-21T00:50:56;11.70;1.00
48604;DHT22;32708;51.212;6.788;2023-03-21T00:53:25;11.60;1.00
48604;DHT22;32708;51.212;6.788;2023-03-21T00:55:51;11.50;12.00
48604;DHT22;32708;51.212;6.788;2023-03-21T00:58:17;11.70;6.70
48604;DHT22;32708;51.212;6.788;2023-03-21T01:00:44;11.70;1.70
48604;DHT22;32708;51.212;6.788;2023-03-21T01:03:13;12.00;5.30
48604;DHT22;32708;51.212;6.788;2023-03-21T01:05:44;11.70;1.00
48604;DHT22;32708;51.212;6.788;2023-03-21T01:08:35;11.70;4.20
48604;DHT22;32708;51.212;6.788;2023-03-21T01:11:09;11.70;4.40
48604;DHT22;32708;51.212;6.788;2023-03-21T01:13:36;11.70;10.60
48604;DHT22;32708;51.212;6.788;2023-03-21T01:16:04;11.70;9.60
48604;DHT22;32708;51.212;6.788;2023-03-21T01:18:32;11.50;22.40
48604;DHT22;32708;51.212;6.788;2023-03-21T01:21:01;11.50;27.30
48604;DHT22;32708;51.212;6.788;2023-03-21T01:23:30;11.50;30.50
48604;DHT22;32708;51.212;6.788;2023-03-21T01:25:57;11.50;30.50
48604;DHT22;32708;51.212;6.788;2023-03-21T01:28:28;11.60;22.80
48604;DHT22;32708;51.212;6.788;2023-03-21T01:30:55;11.60;21.60
48604;DHT22;32708;51.212;6.788;2023-03-21T01:33:28;11.60;26.10
48604;DHT22;32708;51.212;6.788;2023-03-21T01:35:55;11.70;20.20
48604;DHT22;32708;51.212;6.788;2023-03-21T01:38:22;11.80;15.60
48604;DHT22;32708;51.212;6.788;2023-03-21T01:40:49;11.60;27.60
48604;DHT22;32708;51.212;6.788;2023-03-21T01:43:32;11.60;29.60
48604;DHT22;32708;51.212;6.788;2023-03-21T01:49:00;11.40;44.90
48604;DHT22;32708;51.212;6.788;2023-03-21T01:51:33;11.40;53.80
48604;DHT22;32708;51.212;6.788;2023-03-21T01:54:01;11.50;48.20
48604;DHT22;32708;51.212;6.788;2023-03-21T01:56:34;11.40;54.30
48604;DHT22;32708;51.212;6.788;2023-03-21T01:59:13;11.30;65.70
48604;DHT22;32708;51.212;6.788;2023-03-21T02:02:30;11.30;68.40
48604;DHT22;32708;51.212;6.788;2023-03-21T02:05:14;11.40;70.30
48604;DHT22;32708;51.212;6.788;2023-03-21T02:07:42;11.30;73.90
48604;DHT22;32708;51.212;6.788;2023-03-21T02:10:12;11.30;76.90
48604;DHT22;32708;51.212;6.788;2023-03-21T02:12:43;11.40;75.70
48604;DHT22;32708;51.212;6.788;2023-03-21T02:15:11;11.40;83.00
48604;DHT22;32708;51.212;6.788;2023-03-21T02:18:13;11.40;86.10
48604;DHT22;32708;51.212;6.788;2023-03-21T02:37:19;11.70;75.40
48604;DHT22;32708;51.212;6.788;2023-03-21T02:40:11;11.80;66.70
48604;DHT22;32708;51.212;6.788;2023-03-21T02:45:47;11.90;63.10
48604;DHT22;32708;51.212;6.788;2023-03-21T02:48:21;11.80;66.40
48604;DHT22;32708;51.212;6.788;2023-03-21T02:50:52;11.70;67.50
48604;DHT22;32708;51.212;6.788;2023-03-21T02:53:24;11.80;67.60
48604;DHT22;32708;51.212;6.788;2023-03-21T02:55:52;11.90;62.60
48604;DHT22;32708;51.212;6.788;2023-03-21T02:58:23;11.80;58.60
48604;DHT22;32708;51.212;6.788;2023-03-21T03:00:55;11.80;65.80
48604;DHT22;32708;51.212;6.788;2023-03-21T03:03:28;11.60;72.10
48604;DHT22;32708;51.212;6.788;2023-03-21T03:05:59;11.60;74.50
48604;DHT22;32708;51.212;6.788;2023-03-21T03:11:25;11.60;75.60
48604;DHT22;32708;51.212;6.788;2023-03-21T03:16:44;11.60;68.10
48604;DHT22;32708;51.212;6.788;2023-03-21T03:19:24;11.60;73.00
48604;DHT22;32708;51.212;6.788;2023-03-21T03:22:45;11.60;66.00
48604;DHT22;32708;51.212;6.788;2023-03-21T03:24:59;11.60;67.70
48604;DHT22;32708;51.212;6.788;2023-03-21T03:27:32;11.60;70.20
48604;DHT22;32708;51.212;6.788;2023-03-21T03:30:05;11.50;66.00
48604;DHT22;32708;51.212;6.788;2023-03-21T03:32:47;11.50;72.40
48604;DHT22;32708;51.212;6.788;2023-03-21T03:35:17;11.60;72.90
48604;DHT22;32708;51.212;6.788;2023-03-21T03:37:55;11.20;79.80
48604;DHT22;32708;51.212;6.788;2023-03-21T03:40:44;11.30;79.70
48604;DHT22;32708;51.212;6.788;2023-03-21T03:43:48;11.20;81.30
48604;DHT22;32708;51.212;6.788;2023-03-21T03:46:22;11.20;83.10
48604;DHT22;32708;51.212;6.788;2023-03-21T03:49:07;11.20;85.80
48604;DHT22;32708;51.212;6.788;2023-03-21T03:51:49;11.50;83.90
48604;DHT22;32708;51.212;6.788;2023-03-21T03:54:36;11.30;81.80
48604;DHT22;32708;51.212;6.788;2023-03-21T03:57:06;11.30;83.40
48604;DHT22;32708;51.212;6.788;2023-03-21T03:59:35;11.20;87.00
48604;DHT22;32708;51.212;6.788;2023-03-21T04:02:17;11.20;90.10
48604;DHT22;32708;51.212;6.788;2023-03-21T04:04:45;11.20;89.70
48604;DHT22;32708;51.212;6.788;2023-03-21T04:07:12;11.30;83.80
48604;DHT22;32708;51.212;6.788;2023-03-21T04:09:39;11.40;82.60
48604;DHT22;32708;51.212;6.788;2023-03-21T04:12:07;11.20;85.20
48604;DHT22;32708;51.212;6.788;2023-03-21T04:14:34;11.20;87.70
48604;DHT22;32708;51.212;6.788;2023-03-21T04:17:03;11.40;90.00
48604;DHT22;32708;51.212;6.788;2023-03-21T04:19:30;11.30;90.10
48604;DHT22;32708;51.212;6.788;2023-03-21T04:21:57;11.30;84.10
48604;DHT22;32708;51.212;6.788;2023-03-21T04:24:23;11.40;81.50
48604;DHT22;32708;51.212;6.788;2023-03-21T04:26:49;11.30;80.00
48604;DHT22;32708;51.212;6.788;2023-03-21T04:29:37;11.40;79.70
48604;DHT22;32708;51.212;6.788;2023-03-21T04:32:30;11.40;79.00
48604;DHT22;32708;51.212;6.788;2023-03-21T04:35:07;11.40;77.90
48604;DHT22;32708;51.212;6.788;2023-03-21T04:37:34;11.40;77.20
48604;DHT22;32708;51.212;6.788;2023-03-21T04:40:03;11.70;76.70
48604;DHT22;32708;51.212;6.788;2023-03-21T04:42:33;11.50;73.20
48604;DHT22;32708;51.212;6.788;2023-03-21T04:45:00;11.40;72.90
48604;DHT22;32708;51.212;6.788;2023-03-21T04:47:27;11.40;73.30
48604;DHT22;32708;51.212;6.788;2023-03-21T04:49:55;11.40;73.70
48604;DHT22;32708;51.212;6.788;2023-03-21T04:52:23;11.10;83.40
48604;DHT22;32708;51.212;6.788;2023-03-21T04:54:49;11.10;87.10
48604;DHT22;32708;51.212;6.788;2023-03-21T04:57:17;11.40;83.50
48604;DHT22;32708;51.212;6.788;2023-03-21T04:59:45;11.30;75.70
48604;DHT22;32708;51.212;6.788;2023-03-21T05:02:12;11.30;75.70
48604;DHT22;32708;51.212;6.788;2023-03-21T05:04:39;11.30;77.90
48604;DHT22;32708;51.212;6.788;2023-03-21T05:07:06;11.30;71.60
48604;DHT22;32708;51.212;6.788;2023-03-21T05:09:32;11.30;72.60
48604;DHT22;32708;51.212;6.788;2023-03-21T05:11:58;11.40;72.80
48604;DHT22;32708;51.212;6.788;2023-03-21T05:14:27;11.40;73.10
48604;DHT22;32708;51.212;6.788;2023-03-21T05:16:53;11.30;74.20
48604;DHT22;32708;51.212;6.788;2023-03-21T05:19:25;11.30;76.80
48604;DHT22;32708;51.212;6.788;2023-03-21T05:22:07;11.20;78.30
48604;DHT22;32708;51.212;6.788;2023-03-21T05:24:34;11.40;79.10
48604;DHT22;32708;51.212;6.788;2023-03-21T05:27:02;11.30;83.60
48604;DHT22;32708;51.212;6.788;2023-03-21T05:29:35;11.30;84.70
48604;DHT22;32708;51.212;6.788;2023-03-21T05:32:04;11.50;90.80
48604;DHT22;32708;51.212;6.788;2023-03-21T05:34:30;11.30;92.60
48604;DHT22;32708;51.212;6.788;2023-03-21T05:36:57;11.30;95.00
48604;DHT22;32708;51.212;6.788;2023-03-21T05:39:28;11.20;93.30
48604;DHT22;32708;51.212;6.788;2023-03-21T05:42:05;11.20;97.40
48604;DHT22;32708;51.212;6.788;2023-03-21T05:44:31;11.20;98.40
48604;DHT22;32708;51.212;6.788;2023-03-21T05:46:59;11.10;98.50
48604;DHT22;32708;51.212;6.788;2023-03-21T05:49:35;11.20;99.90
48604;DHT22;32708;51.212;6.788;2023-03-21T05:52:02;11.10;99.90
48604;DHT22;32708;51.212;6.788;2023-03-21T05:54:28;11.10;99.90
48604;DHT22;32708;51.212;6.788;2023-03-21T05:56:54;11.10;99.90
48604;DHT22;32708;51.212;6.788;2023-03-21T05:59:46;11.30;99.90
48604;DHT22;32708;51.212;6.788;2023-03-21T06:02:12;11.10;99.90
48604;DHT22;32708;51.212;6.788;2023-03-21T06:04:38;11.50;99.90
48604;DHT22;32708;51.212;6.788;2023-03-21T06:07:04;11.20;99.90
48604;DHT22;32708;51.212;6.788;2023-03-21T06:09:31;11.10;99.90
48604;DHT22;32708;51.212;6.788;2023-03-21T06:12:01;11.00;99.90
48604;DHT22;32708;51.212;6.788;2023-03-21T06:14:51;11.00;99.90
48604;DHT22;32708;51.212;6.788;2023-03-21T06:17:27;11.10;99.90
48604;DHT22;32708;51.212;6.788;2023-03-21T06:19:59;11.00;99.90
48604;DHT22;32708;51.212;6.788;2023-03-21T06:22:33;11.20;99.90
48604;DHT22;32708;51.212;6.788;2023-03-21T06:25:01;11.10;99.90
48604;DHT22;32708;51.212;6.788;2023-03-21T06:27:28;11.00;99.90
48604;DHT22;32708;51.212;6.788;2023-03-21T06:29:55;11.10;99.90
48604;DHT22;32708;51.212;6.788;2023-03-21T06:32:25;11.10;99.90
48604;DHT22;32708;51.212;6.788;2023-03-21T06:35:00;11.10;99.90
48604;DHT22;32708;51.212;6.788;2023-03-21T06:37:27;11.10;99.90
48604;DHT22;32708;51.212;6.788;2023-03-21T06:39:53;11.10;99.90
48604;DHT22;32708;51.212;6.788;2023-03-21T06:42:20;11.10;99.90
48604;DHT22;32708;51.212;6.788;2023-03-21T06:44:47;11.20;99.90
48604;DHT22;32708;51.212;6.788;2023-03-21T06:47:15;11.10;99.90
48604;DHT22;32708;51.212;6.788;2023-03-21T06:49:43;11.20;99.90
48604;DHT22;32708;51.212;6.788;2023-03-21T06:52:11;11.20;99.90
48604;DHT22;32708;51.212;6.788;2023-03-21T06:54:37;11.20;99.90
48604;DHT22;32708;51.212;6.788;2023-03-21T06:57:09;11.20;99.90
48604;DHT22;32708;51.212;6.788;2023-03-21T06:59:37;11.30;99.90
48604;DHT22;32708;51.212;6.788;2023-03-21T07:02:10;11.30;99.90
48604;DHT22;32708;51.212;6.788;2023-03-21T07:04:41;11.30;99.90
48604;DHT22;32708;51.212;6.788;2023-03-21T07:07:13;11.30;99.90
48604;DHT22;32708;51.212;6.788;2023-03-21T07:09:40;11.30;99.90
48604;DHT22;32708;51.212;6.788;2023-03-21T07:12:07;11.40;99.90
48604;DHT22;32708;51.212;6.788;2023-03-21T07:14:44;11.40;99.90
48604;DHT22;32708;51.212;6.788;2023-03-21T07:17:11;11.40;99.90
48604;DHT22;32708;51.212;6.788;2023-03-21T07:19:37;11.40;99.90
48604;DHT22;32708;51.212;6.788;2023-03-21T07:22:03;11.50;99.90
48604;DHT22;32708;51.212;6.788;2023-03-21T07:24:29;11.40;99.90
48604;DHT22;32708;51.212;6.788;2023-03-21T07:26:55;11.40;99.90
48604;DHT22;32708;51.212;6.788;2023-03-21T07:29:21;11.50;99.90
48604;DHT22;32708;51.212;6.788;2023-03-21T07:31:48;11.50;99.90
48604;DHT22;32708;51.212;6.788;2023-03-21T07:34:15;11.50;99.90
48604;DHT22;32708;51.212;6.788;2023-03-21T07:36:42;11.40;99.90
48604;DHT22;32708;51.212;6.788;2023-03-21T07:39:08;11.50;99.90
48604;DHT22;32708;51.212;6.788;2023-03-21T07:41:34;11.40;99.90
48604;DHT22;32708;51.212;6.788;2023-03-21T07:44:11;11.30;99.90
48604;DHT22;32708;51.212;6.788;2023-03-21T07:46:38;11.40;99.90
48604;DHT22;32708;51.212;6.788;2023-03-21T07:49:04;11.40;99.90
48604;DHT22;32708;51.212;6.788;2023-03-21T07:51:31;11.40;99.90
48604;DHT22;32708;51.212;6.788;2023-03-21T07:53:58;11.20;99.90
48604;DHT22;32708;51.212;6.788;2023-03-21T07:56:24;11.20;99.90
48604;DHT22;32708;51.212;6.788;2023-03-21T07:58:50;11.20;99.90
48604;DHT22;32708;51.212;6.788;2023-03-21T08:01:16;11.20;99.90
48604;DHT22;32708;51.212;6.788;2023-03-21T08:03:41;11.20;99.90
48604;DHT22;32708;51.212;6.788;2023-03-21T08:06:08;11.10;99.90
48604;DHT22;32708;51.212;6.788;2023-03-21T08:08:34;11.20;99.90
48604;DHT22;32708;51.212;6.788;2023-03-21T08:11:02;11.20;99.90
48604;DHT22;32708;51.212;6.788;2023-03-21T08:13:28;11.20;99.90
48604;DHT22;32708;51.212;6.788;2023-03-21T08:15:54;11.10;99.90
48604;DHT22;32708;51.212;6.788;2023-03-21T08:18:23;11.00;99.90
48604;DHT22;32708;51.212;6.788;2023-03-21T08:20:54;11.00;99.90
48604;DHT22;32708;51.212;6.788;2023-03-21T08:23:21;11.00;99.90
48604;DHT22;32708;51.212;6.788;2023-03-21T08:25:52;11.10;99.90
48604;DHT22;32708;51.212;6.788;2023-03-21T08:28:20;11.20;99.90
48604;DHT22;32708;51.212;6.788;2023-03-21T08:30:47;11.10;99.90
48604;DHT22;32708;51.212;6.788;2023-03-21T08:33:13;11.10;99.90
48604;DHT22;32708;51.212;6.788;2023-03-21T08:35:39;11.30;99.90
48604;DHT22;32708;51.212;6.788;2023-03-21T08:38:06;11.30;99.90
48604;DHT22;32708;51.212;6.788;2023-03-21T08:40:32;11.20;99.90
48604;DHT22;32708;51.212;6.788;2023-03-21T08:42:59;11.20;99.90
48604;DHT22;32708;51.212;6.788;2023-03-21T08:45:25;11.20;99.90
48604;DHT22;32708;51.212;6.788;2023-03-21T08:47:53;11.30;99.90
48604;DHT22;32708;51.212;6.788;2023-03-21T08:50:21;11.30;99.90
48604;DHT22;32708;51.212;6.788;2023-03-21T08:52:48;11.20;99.90
48604;DHT22;32708;51.212;6.788;2023-03-21T08:55:16;11.30;99.90
48604;DHT22;32708;51.212;6.788;2023-03-21T08:57:44;11.30;99.90
48604;DHT22;32708;51.212;6.788;2023-03-21T09:00:14;11.30;99.90
48604;DHT22;32708;51.212;6.788;2023-03-21T09:02:43;11.30;99.90
48604;DHT22;32708;51.212;6.788;2023-03-21T09:05:11;11.30;99.90
48604;DHT22;32708;51.212;6.788;2023-03-21T09:07:38;11.20;99.90
48604;DHT22;32708;51.212;6.788;2023-03-21T09:10:07;11.30;99.90
48604;DHT22;32708;51.212;6.788;2023-03-21T09:12:34;11.40;99.90
48604;DHT22;32708;51.212;6.788;2023-03-21T09:15:00;11.40;99.90
48604;DHT22;32708;51.212;6.788;2023-03-21T09:17:28;11.50;99.90
48604;DHT22;32708;51.212;6.788;2023-03-21T09:19:54;11.50;99.90
48604;DHT22;32708;51.212;6.788;2023-03-21T09:22:21;11.60;99.90
48604;DHT22;32708;51.212;6.788;2023-03-21T09:24:48;11.50;99.90
48604;DHT22;32708;51.212;6.788;2023-03-21T09:27:16;11.60;99.90
48604;DHT22;32708;51.212;6.788;2023-03-21T09:29:48;11.60;99.90
48604;DHT22;32708;51.212;6.788;2023-03-21T09:32:14;11.60;99.90
48604;DHT22;32708;51.212;6.788;2023-03-21T09:34:43;11.60;99.90
48604;DHT22;32708;51.212;6.788;2023-03-21T09:37:10;11.60;99.90
48604;DHT22;32708;51.212;6.788;2023-03-21T09:39:41;11.70;99.90
48604;DHT22;32708;51.212;6.788;2023-03-21T09:42:23;11.70;99.90
48604;DHT22;32708;51.212;6.788;2023-03-21T09:45:49;11.70;99.90
48604;DHT22;32708;51.212;6.788;2023-03-21T09:47:56;11.60;99.90
48604;DHT22;32708;51.212;6.788;2023-03-21T09:50:33;11.50;99.90
48604;DHT22;32708;51.212;6.788;2023-03-21T09:53:08;11.50;99.90
48604;DHT22;32708;51.212;6.788;2023-03-21T09:55:37;11.40;99.90
48604;DHT22;32708;51.212;6.788;2023-03-21T10:00:49;11.50;99.90
48604;DHT22;32708;51.212;6.788;2023-03-21T10:03:23;11.50;99.90
48604;DHT22;32708;51.212;6.788;2023-03-21T10:05:53;11.60;99.90
48604;DHT22;32708;51.212;6.788;2023-03-21T10:08:35;11.70;99.90
48604;DHT22;32708;51.212;6.788;2023-03-21T10:11:16;12.00;99.90
48604;DHT22;32708;51.212;6.788;2023-03-21T10:13:58;12.00;99.90
48604;DHT22;32708;51.212;6.788;2023-03-21T10:16:32;12.10;99.90
48604;DHT22;32708;51.212;6.788;2023-03-21T10:19:08;12.20;99.90
48604;DHT22;32708;51.212;6.788;2023-03-21T10:21:38;12.30;99.90
48604;DHT22;32708;51.212;6.788;2023-03-21T10:24:17;12.20;99.90
48604;DHT22;32708;51.212;6.788;2023-03-21T10:26:46;12.10;99.90
48604;DHT22;32708;51.212;6.788;2023-03-21T10:29:14;12.20;99.90
48604;DHT22;32708;51.212;6.788;2023-03-21T10:31:44;12.20;99.90
48604;DHT22;32708;51.212;6.788;2023-03-21T10:34:19;12.30;99.90
48604;DHT22;32708;51.212;6.788;2023-03-21T10:36:46;12.20;99.90
48604;DHT22;32708;51.212;6.788;2023-03-21T10:41:52;12.50;99.90
48604;DHT22;32708;51.212;6.788;2023-03-21T10:44:19;12.40;99.90
48604;DHT22;32708;51.212;6.788;2023-03-21T10:47:05;12.50;99.90
48604;DHT22;32708;51.212;6.788;2023-03-21T10:49:32;12.40;99.90
48604;DHT22;32708;51.212;6.788;2023-03-21T10:52:03;12.60;99.90
48604;DHT22;32708;51.212;6.788;2023-03-21T10:54:33;12.40;99.90
48604;DHT22;32708;51.212;6.788;2023-03-21T10:57:10;12.30;99.90
48604;DHT22;32708;51.212;6.788;2023-03-21T10:59:48;12.30;99.90
48604;DHT22;32708;51.212;6.788;2023-03-21T11:02:25;12.30;99.90
48604;DHT22;32708;51.212;6.788;2023-03-21T11:04:54;12.40;99.90
48604;DHT22;32708;51.212;6.788;2023-03-21T11:07:21;12.30;99.90
48604;DHT22;32708;51.212;6.788;2023-03-21T11:09:57;12.40;99.90
48604;DHT22;32708;51.212;6.788;2023-03-21T11:12:36;12.40;99.90
48604;DHT22;32708;51.212;6.788;2023-03-21T11:17:53;12.30;99.90
48604;DHT22;32708;51.212;6.788;2023-03-21T11:20:20;12.40;99.90
48604;DHT22;32708;51.212;6.788;2023-03-21T11:22:48;12.50;99.90
48604;DHT22;32708;51.212;6.788;2023-03-21T11:27:55;12.60;99.90
48604;DHT22;32708;51.212;6.788;2023-03-21T11:30:24;12.50;99.90
48604;DHT22;32708;51.212;6.788;2023-03-21T11:32:57;12.30;99.90
48604;DHT22;32708;51.212;6.788;2023-03-21T11:35:37;12.30;99.90
48604;DHT22;32708;51.212;6.788;2023-03-21T11:38:06;12.40;99.90
48604;DHT22;32708;51.212;6.788;2023-03-21T11:40:53;12.30;99.90
48604;DHT22;32708;51.212;6.788;2023-03-21T11:46:04;12.20;99.90
48604;DHT22;32708;51.212;6.788;2023-03-21T11:48:43;12.30;99.90
48604;DHT22;32708;51.212;6.788;2023-03-21T11:57:12;12.20;99.90
48604;DHT22;32708;51.212;6.788;2023-03-21T12:00:40;12.20;99.90
48604;DHT22;32708;51.212;6.788;2023-03-21T12:05:55;12.20;99.90
48604;DHT22;32708;51.212;6.788;2023-03-21T12:11:16;12.30;99.90
48604;DHT22;32708;51.212;6.788;2023-03-21T12:14:08;12.10;99.90
48604;DHT22;32708;51.212;6.788;2023-03-21T12:16:52;12.10;99.90
48604;DHT22;32708;51.212;6.788;2023-03-21T12:24:54;12.00;99.90
48604;DHT22;32708;51.212;6.788;2023-03-21T12:30:07;11.80;99.90
48604;DHT22;32708;51.212;6.788;2023-03-21T12:33:05;11.80;99.90
48604;DHT22;32708;51.212;6.788;2023-03-21T12:38:14;11.90;99.90
48604;DHT22;32708;51.212;6.788;2023-03-21T12:41:03;12.00;99.90
48604;DHT22;32708;51.212;6.788;2023-03-21T12:43:46;12.10;99.90
48604;DHT22;32708;51.212;6.788;2023-03-21T12:52:06;12.10;99.90
48604;DHT22;32708;51.212;6.788;2023-03-21T12:54:48;12.10;99.90
48604;DHT22;32708;51.212;6.788;2023-03-21T12:57:29;12.30;99.90
48604;DHT22;32708;51.212;6.788;2023-03-21T13:08:20;12.30;99.90
48604;DHT22;32708;51.212;6.788;2023-03-21T13:10:51;12.20;99.90
48604;DHT22;32708;51.212;6.788;2023-03-21T13:18:46;12.40;99.90
48604;DHT22;32708;51.212;6.788;2023-03-21T13:21:16;12.30;99.90
48604;DHT22;32708;51.212;6.788;2023-03-21T13:23:59;12.30;99.90
48604;DHT22;32708;51.212;6.788;2023-03-21T13:27:02;12.30;99.90
48604;DHT22;32708;51.212;6.788;2023-03-21T13:29:44;12.50;99.90
48604;DHT22;32708;51.212;6.788;2023-03-21T13:32:33;12.30;99.90
48604;DHT22;32708;51.212;6.788;2023-03-21T13:37:48;12.50;99.90
48604;DHT22;32708;51.212;6.788;2023-03-21T13:40:27;12.70;99.90
48604;DHT22;32708;51.212;6.788;2023-03-21T13:42:59;12.70;99.90
48604;DHT22;32708;51.212;6.788;2023-03-21T13:45:51;12.80;99.90
48604;DHT22;32708;51.212;6.788;2023-03-21T13:48:32;12.90;99.90
48604;DHT22;32708;51.212;6.788;2023-03-21T13:51:06;13.00;99.90
48604;DHT22;32708;51.212;6.788;2023-03-21T13:53:37;12.90;99.90
48604;DHT22;32708;51.212;6.788;2023-03-21T14:04:13;13.20;98.60
48604;DHT22;32708;51.212;6.788;2023-03-21T14:09:35;13.00;98.90
48604;DHT22;32708;51.212;6.788;2023-03-21T14:12:08;13.10;97.30
48604;DHT22;32708;51.212;6.788;2023-03-21T14:14:40;13.10;97.10
48604;DHT22;32708;51.212;6.788;2023-03-21T14:17:23;13.10;97.40
48604;DHT22;32708;51.212;6.788;2023-03-21T14:20:05;13.10;97.30
48604;DHT22;32708;51.212;6.788;2023-03-21T14:22:38;13.20;95.90
48604;DHT22;32708;51.212;6.788;2023-03-21T14:25:11;13.20;95.20
48604;DHT22;32708;51.212;6.788;2023-03-21T14:27:42;13.00;96.70
48604;DHT22;32708;51.212;6.788;2023-03-21T14:30:26;13.10;93.70
48604;DHT22;32708;51.212;6.788;2023-03-21T14:35:40;13.10;95.70
48604;DHT22;32708;51.212;6.788;2023-03-21T14:38:16;13.30;94.40
48604;DHT22;32708;51.212;6.788;2023-03-21T14:40:50;13.40;94.20
48604;DHT22;32708;51.212;6.788;2023-03-21T14:43:19;13.20;93.70
48604;DHT22;32708;51.212;6.788;2023-03-21T14:45:56;13.20;93.60
48604;DHT22;32708;51.212;6.788;2023-03-21T14:48:33;13.20;93.70
48604;DHT22;32708;51.212;6.788;2023-03-21T14:51:06;13.20;94.10
48604;DHT22;32708;51.212;6.788;2023-03-21T14:53:40;13.30;93.00
48604;DHT22;32708;51.212;6.788;2023-03-21T14:56:15;13.20;93.80
48604;DHT22;32708;51.212;6.788;2023-03-21T14:58:45;13.30;92.90
48604;DHT22;32708;51.212;6.788;2023-03-21T15:01:31;13.40;90.00
48604;DHT22;32708;51.212;6.788;2023-03-21T15:04:04;13.60;88.80
48604;DHT22;32708;51.212;6.788;2023-03-21T15:06:31;13.50;87.30
48604;DHT22;32708;51.212;6.788;2023-03-21T15:09:03;13.50;88.30
48604;DHT22;32708;51.212;6.788;2023-03-21T15:11:36;13.50;89.30
48604;DHT22;32708;51.212;6.788;2023-03-21T15:14:08;13.70;82.10
48604;DHT22;32708;51.212;6.788;2023-03-21T15:16:37;13.70;80.80
48604;DHT22;32708;51.212;6.788;2023-03-21T15:19:04;13.60;81.90
48604;DHT22;32708;51.212;6.788;2023-03-21T15:21:37;13.80;80.70
48604;DHT22;32708;51.212;6.788;2023-03-21T15:26:46;13.60;79.50
48604;DHT22;32708;51.212;6.788;2023-03-21T15:29:15;13.70;81.70
48604;DHT22;32708;51.212;6.788;2023-03-21T15:31:42;13.70;73.50
48604;DHT22;32708;51.212;6.788;2023-03-21T15:34:21;13.70;74.30
48604;DHT22;32708;51.212;6.788;2023-03-21T15:36:55;13.80;76.80
48604;DHT22;32708;51.212;6.788;2023-03-21T15:39:21;13.90;75.40
48604;DHT22;32708;51.212;6.788;2023-03-21T15:42:04;13.90;70.70
48604;DHT22;32708;51.212;6.788;2023-03-21T15:44:31;13.90;72.10
48604;DHT22;32708;51.212;6.788;2023-03-21T15:46:58;14.00;75.60
48604;DHT22;32708;51.212;6.788;2023-03-21T15:49:28;14.10;71.00
48604;DHT22;32708;51.212;6.788;2023-03-21T15:52:10;13.80;78.40
48604;DHT22;32708;51.212;6.788;2023-03-21T15:54:47;13.70;83.30
48604;DHT22;32708;51.212;6.788;2023-03-21T15:57:24;13.80;84.50
48604;DHT22;32708;51.212;6.788;2023-03-21T15:59:59;13.70;81.80
48604;DHT22;32708;51.212;6.788;2023-03-21T16:02:41;13.70;85.40
48604;DHT22;32708;51.212;6.788;2023-03-21T16:05:29;13.70;88.40
48604;DHT22;32708;51.212;6.788;2023-03-21T16:08:05;13.60;90.40
48604;DHT22;32708;51.212;6.788;2023-03-21T16:10:42;13.60;90.60
48604;DHT22;32708;51.212;6.788;2023-03-21T16:13:14;13.60;92.40
48604;DHT22;32708;51.212;6.788;2023-03-21T16:15:41;13.70;91.10
48604;DHT22;32708;51.212;6.788;2023-03-21T16:18:08;13.60;92.40
48604;DHT22;32708;51.212;6.788;2023-03-21T16:20:46;13.60;91.90
48604;DHT22;32708;51.212;6.788;2023-03-21T16:23:14;13.80;90.10
48604;DHT22;32708;51.212;6.788;2023-03-21T16:25:42;13.80;88.20
48604;DHT22;32708;51.212;6.788;2023-03-21T16:28:13;13.60;93.10
48604;DHT22;32708;51.212;6.788;2023-03-21T16:30:40;13.80;93.30
48604;DHT22;32708;51.212;6.788;2023-03-21T16:33:11;13.80;88.10
48604;DHT22;32708;51.212;6.788;2023-03-21T16:35:38;13.80;87.30
48604;DHT22;32708;51.212;6.788;2023-03-21T16:38:04;13.80;86.20
48604;DHT22;32708;51.212;6.788;2023-03-21T16:40:37;13.70;91.80
48604;DHT22;32708;51.212;6.788;2023-03-21T16:43:06;13.60;91.50
48604;DHT22;32708;51.212;6.788;2023-03-21T16:45:32;13.60;91.70
48604;DHT22;32708;51.212;6.788;2023-03-21T16:48:17;13.60;92.40
48604;DHT22;32708;51.212;6.788;2023-03-21T16:50:46;13.70;92.60
48604;DHT22;32708;51.212;6.788;2023-03-21T16:53:13;13.70;91.60
48604;DHT22;32708;51.212;6.788;2023-03-21T16:55:39;13.70;90.90
48604;DHT22;32708;51.212;6.788;2023-03-21T16:58:06;13.70;91.80
48604;DHT22;32708;51.212;6.788;2023-03-21T17:00:32;13.60;91.90
48604;DHT22;32708;51.212;6.788;2023-03-21T17:03:01;13.60;92.80
48604;DHT22;32708;51.212;6.788;2023-03-21T17:05:34;13.60;92.90
48604;DHT22;32708;51.212;6.788;2023-03-21T17:08:00;13.60;93.10
48604;DHT22;32708;51.212;6.788;2023-03-21T17:10:29;13.70;92.90
48604;DHT22;32708;51.212;6.788;2023-03-21T17:12:56;13.60;93.10
48604;DHT22;32708;51.212;6.788;2023-03-21T17:15:22;13.50;95.60
48604;DHT22;32708;51.212;6.788;2023-03-21T17:17:49;13.50;95.40
48604;DHT22;32708;51.212;6.788;2023-03-21T17:22:41;13.70;95.20
48604;DHT22;32708;51.212;6.788;2023-03-21T17:25:07;13.70;93.50
48604;DHT22;32708;51.212;6.788;2023-03-21T17:27:35;13.70;93.50
48604;DHT22;32708;51.212;6.788;2023-03-21T17:30:31;13.80;91.40
48604;DHT22;32708;51.212;6.788;2023-03-21T17:32:57;13.70;91.80
48604;DHT22;32708;51.212;6.788;2023-03-21T17:35:25;13.70;92.70
48604;DHT22;32708;51.212;6.788;2023-03-21T17:37:52;13.70;92.40
48604;DHT22;32708;51.212;6.788;2023-03-21T17:40:30;13.70;93.50
48604;DHT22;32708;51.212;6.788;2023-03-21T17:42:57;13.70;93.70
48604;DHT22;32708;51.212;6.788;2023-03-21T17:45:24;13.70;94.20
48604;DHT22;32708;51.212;6.788;2023-03-21T17:47:51;13.60;94.90